Time;durP1;ratioP1;P1;durP2;ratioP2;P2;SDS_P1;SDS_P2;PMS_P1;PMS_P2;Temp;Humidity;BMP_temperature;BMP_pressure;BME280_temperature;BME280_humidity;BME280_pressure;Samples;Min_cycle;Max_cycle;Signal;HPM_P1;HPM_P2
2023/06/29 00:02:29;;;;;;;4.25;3.53;;;;;13.20;96502.00;;;;8332247;28;20303;-59
2023/06/29 00:06:37;;;;;;;5.07;3.60;;;;;13.30;96505.00;;;;8331412;28;20192;-59
2023/06/29 00:10:40;;;;;;;4.70;3.75;;;;;13.30;96499.00;;;;8330704;28;20254;-59
2023/06/29 00:14:45;;;;;;;7.22;3.40;;;;;13.30;96490.00;;;;8326372;28;20278;-59
2023/06/29 00:18:55;;;;;;;5.15;3.47;;;;;13.10;96488.00;;;;8331431;28;20308;-59
2023/06/29 00:22:59;;;;;;;5.40;3.53;;;;;13.10;96487.00;;;;8330969;28;20291;-59
2023/06/29 00:27:02;;;;;;;4.25;3.42;;;;;13.00;96484.00;;;;8331737;28;20195;-59
2023/06/29 00:31:07;;;;;;;5.47;3.20;;;;;12.90;96486.00;;;;8329656;28;20202;-60
2023/06/29 00:35:10;;;;;;;4.25;3.70;;;;;12.70;96487.00;;;;8331835;28;20531;-59
2023/06/29 00:39:15;;;;;;;7.43;4.10;;;;;12.50;96477.00;;;;8331333;28;20266;-59
2023/06/29 00:43:20;;;;;;;3.88;3.58;;;;;12.40;96480.00;;;;8331589;28;20609;-60
2023/06/29 00:47:26;;;;;;;6.63;3.92;;;;;12.40;96477.00;;;;8330908;28;20200;-58
2023/06/29 00:51:32;;;;;;;4.72;3.45;;;;;12.50;96471.00;;;;8334774;28;20208;-59
2023/06/29 00:55:36;;;;;;;3.85;3.45;;;;;12.50;96471.00;;;;8337967;28;20197;-59
2023/06/29 00:59:40;;;;;;;4.22;3.72;;;;;12.60;96477.00;;;;8337052;28;20206;-59
2023/06/29 01:03:47;;;;;;;5.60;3.83;;;;;12.60;96472.00;;;;8336503;28;20251;-59
2023/06/29 01:07:56;;;;;;;4.57;3.90;;;;;12.60;96470.00;;;;8335877;28;20193;-59
2023/06/29 01:12:01;;;;;;;9.50;4.05;;;;;12.60;96470.00;;;;8337067;28;20202;-59
2023/06/29 01:16:06;;;;;;;5.32;3.38;;;;;12.70;96461.00;;;;8335446;28;20218;-59
2023/06/29 01:20:12;;;;;;;4.10;3.70;;;;;12.70;96458.00;;;;8336149;28;20227;-59
2023/06/29 01:24:19;;;;;;;7.55;3.45;;;;;12.60;96452.00;;;;8335098;28;20179;-59
2023/06/29 01:28:26;;;;;;;5.93;3.90;;;;;12.50;96451.00;;;;8336401;28;20696;-59
2023/06/29 01:32:35;;;;;;;5.25;3.33;;;;;12.40;96452.00;;;;8335602;28;20233;-60
2023/06/29 01:36:46;;;;;;;4.03;3.60;;;;;12.30;96453.00;;;;8335799;28;20216;-59
2023/06/29 01:40:52;;;;;;;5.00;3.67;;;;;12.30;96447.00;;;;8335626;28;20269;-59
2023/06/29 01:45:00;;;;;;;5.40;3.80;;;;;12.20;96447.00;;;;8335531;28;20237;-59
2023/06/29 01:49:03;;;;;;;7.28;3.80;;;;;12.20;96452.00;;;;8335363;28;20201;-59
2023/06/29 01:53:08;;;;;;;4.68;4.13;;;;;12.10;96449.00;;;;8335636;28;20652;-59
2023/06/29 01:57:12;;;;;;;7.88;4.30;;;;;12.00;96452.00;;;;8335815;28;20229;-60
2023/06/29 02:01:20;;;;;;;5.20;4.05;;;;;12.00;96447.00;;;;8332804;28;20705;-59
2023/06/29 02:05:23;;;;;;;8.18;3.95;;;;;11.90;96449.00;;;;8335017;28;20262;-59
2023/06/29 02:09:27;;;;;;;5.30;3.60;;;;;11.90;96446.00;;;;8335141;28;20252;-59
2023/06/29 02:13:32;;;;;;;4.75;4.10;;;;;11.80;96446.00;;;;8335530;28;20228;-59
2023/06/29 02:17:39;;;;;;;8.40;3.92;;;;;11.80;96444.00;;;;8334958;28;20199;-59
2023/06/29 02:21:50;;;;;;;6.68;4.20;;;;;11.80;96450.00;;;;8334863;28;20189;-59
2023/06/29 02:25:56;;;;;;;7.35;3.90;;;;;11.60;96447.00;;;;8333603;28;20237;-59
2023/06/29 02:29:59;;;;;;;5.73;4.70;;;;;11.50;96440.00;;;;8334473;28;20229;-58
2023/06/29 02:34:04;;;;;;;7.00;4.10;;;;;11.50;96444.00;;;;8333623;28;20194;-58
2023/06/29 02:38:08;;;;;;;4.20;3.80;;;;;11.60;96446.00;;;;8334198;28;20253;-58
2023/06/29 02:42:11;;;;;;;4.70;4.07;;;;;11.70;96437.00;;;;8333638;28;20448;-58
2023/06/29 02:46:15;;;;;;;6.10;4.28;;;;;11.60;96433.00;;;;8333583;28;20209;-58
2023/06/29 02:50:20;;;;;;;4.93;4.00;;;;;11.70;96437.00;;;;8333396;28;20251;-58
2023/06/29 02:54:25;;;;;;;6.60;4.30;;;;;11.80;96432.00;;;;8334467;28;20659;-58
2023/06/29 02:58:28;;;;;;;6.63;3.80;;;;;11.70;96430.00;;;;8333100;28;20217;-58
2023/06/29 03:02:31;;;;;;;9.25;4.30;;;;;11.70;96436.00;;;;8396729;23;20243;-59
2023/06/29 03:06:36;;;;;;;5.22;3.88;;;;;11.70;96439.00;;;;8223164;28;21352;-60
2023/06/29 03:10:39;;;;;;;6.80;4.27;;;;;11.70;96443.00;;;;8232445;28;20325;-62
2023/06/29 03:14:45;;;;;;;5.65;4.15;;;;;11.60;96434.00;;;;8222923;28;20200;-61
2023/06/29 03:18:55;;;;;;;5.75;4.00;;;;;11.60;96435.00;;;;8229476;28;20289;-62
2023/06/29 03:23:00;;;;;;;4.68;4.03;;;;;11.60;96437.00;;;;8233278;28;20196;-61
2023/06/29 03:27:04;;;;;;;4.40;3.83;;;;;11.50;96436.00;;;;8231179;28;20191;-59
2023/06/29 03:31:07;;;;;;;8.30;4.30;;;;;11.60;96432.00;;;;8231246;28;20200;-60
2023/06/29 03:35:13;;;;;;;4.05;3.75;;;;;11.50;96430.00;;;;8229243;28;20557;-61
2023/06/29 03:39:17;;;;;;;4.80;4.30;;;;;11.60;96433.00;;;;8230504;28;20254;-62
2023/06/29 03:43:25;;;;;;;6.87;4.37;;;;;11.60;96420.00;;;;8219088;28;20901;-61
2023/06/29 03:47:28;;;;;;;6.40;4.72;;;;;11.70;96426.00;;;;8206735;28;20217;-60
2023/06/29 03:51:32;;;;;;;4.72;4.30;;;;;11.80;96434.00;;;;8223846;28;20263;-60
2023/06/29 03:55:38;;;;;;;4.82;4.25;;;;;12.00;96433.00;;;;8224555;28;20301;-62
2023/06/29 03:59:45;;;;;;;5.97;3.83;;;;;12.20;96425.00;;;;8227588;28;20240;-61
2023/06/29 04:03:48;;;;;;;3.63;3.33;;;;;12.50;96432.00;;;;8236861;28;20281;-60
2023/06/29 04:07:54;;;;;;;5.80;3.95;;;;;12.70;96432.00;;;;8227839;28;20205;-61
2023/06/29 04:12:01;;;;;;;5.32;3.75;;;;;13.10;96427.00;;;;8240300;28;20768;-63
2023/06/29 04:16:06;;;;;;;4.30;3.90;;;;;13.50;96428.00;;;;8221291;28;20244;-61
2023/06/29 04:20:12;;;;;;;7.43;3.90;;;;;13.90;96430.00;;;;8221289;28;20235;-61
2023/06/29 04:24:16;;;;;;;3.80;3.50;;;;;14.40;96423.00;;;;8217324;28;20636;-60
2023/06/29 04:28:21;;;;;;;5.95;3.33;;;;;14.80;96429.00;;;;8218156;28;20207;-60
2023/06/29 04:32:25;;;;;;;4.47;3.78;;;;;15.20;96430.00;;;;8249816;28;20928;-60
2023/06/29 04:36:28;;;;;;;5.40;3.55;;;;;15.60;96429.00;;;;8239509;28;20663;-60
2023/06/29 04:40:33;;;;;;;3.42;3.13;;;;;16.00;96427.00;;;;8223700;28;20234;-60
2023/06/29 04:44:38;;;;;;;3.38;3.17;;;;;16.40;96430.00;;;;8238464;28;20298;-60
2023/06/29 04:48:46;;;;;;;3.78;3.38;;;;;16.70;96426.00;;;;8232904;28;20215;-60
2023/06/29 04:52:52;;;;;;;6.15;3.25;;;;;16.90;96432.00;;;;8227820;28;20200;-61
2023/06/29 04:57:02;;;;;;;4.47;3.45;;;;;16.80;96435.00;;;;8223222;28;20978;-60
2023/06/29 05:01:06;;;;;;;6.47;3.65;;;;;16.80;96433.00;;;;8239506;28;20243;-62
2023/06/29 05:05:11;;;;;;;6.15;3.60;;;;;16.90;96429.00;;;;8215538;28;20220;-63
2023/06/29 05:09:15;;;;;;;3.80;3.42;;;;;17.10;96431.00;;;;8226617;28;20306;-60
2023/06/29 05:13:18;;;;;;;8.32;4.25;;;;;17.40;96428.00;;;;8223603;28;20226;-60
2023/06/29 05:17:23;;;;;;;6.82;4.40;;;;;17.60;96436.00;;;;8225792;28;20644;-62
2023/06/29 05:21:28;;;;;;;5.55;4.20;;;;;17.90;96429.00;;;;8226662;28;20227;-60
2023/06/29 05:25:33;;;;;;;7.57;4.32;;;;;18.30;96429.00;;;;8236529;28;20207;-60
2023/06/29 05:29:37;;;;;;;8.18;4.43;;;;;18.70;96430.00;;;;8232446;28;20286;-60
2023/06/29 05:33:43;;;;;;;7.90;4.18;;;;;19.30;96429.00;;;;8236965;28;20225;-59
2023/06/29 05:37:47;;;;;;;5.28;4.13;;;;;19.80;96429.00;;;;8242979;28;20712;-60
2023/06/29 05:41:51;;;;;;;10.50;4.70;;;;;20.40;96434.00;;;;8237095;28;20410;-59
2023/06/29 05:45:59;;;;;;;6.07;4.15;;;;;20.90;96432.00;;;;8201340;28;20283;-59
2023/06/29 05:50:07;;;;;;;5.32;4.65;;;;;21.50;96431.00;;;;8213201;28;20212;-59
2023/06/29 05:54:10;;;;;;;6.05;4.05;;;;;22.10;96429.00;;;;8234783;28;20736;-60
2023/06/29 05:58:13;;;;;;;8.35;5.10;;;;;22.70;96435.00;;;;8235542;28;20214;-59
2023/06/29 06:02:17;;;;;;;6.63;4.10;;;;;23.30;96431.00;;;;8235064;28;20230;-59
2023/06/29 06:06:22;;;;;;;6.13;4.18;;;;;23.80;96428.00;;;;8231797;28;20199;-59
2023/06/29 06:10:26;;;;;;;5.40;4.22;;;;;24.30;96434.00;;;;8218501;28;20214;-60
2023/06/29 06:14:32;;;;;;;7.18;4.30;;;;;24.70;96437.00;;;;8230049;28;20203;-60
2023/06/29 06:18:38;;;;;;;4.97;4.00;;;;;24.80;96439.00;;;;8230140;28;20203;-60
2023/06/29 06:22:42;;;;;;;6.65;4.35;;;;;24.90;96433.00;;;;8234940;28;20232;-59
2023/06/29 06:26:45;;;;;;;6.47;3.95;;;;;25.20;96442.00;;;;8228880;28;20282;-60
2023/06/29 06:30:49;;;;;;;4.68;3.97;;;;;25.70;96435.00;;;;8220739;28;20222;-60
2023/06/29 06:34:57;;;;;;;4.47;4.07;;;;;26.30;96438.00;;;;8230974;28;20210;-59
2023/06/29 06:39:04;;;;;;;4.18;3.50;;;;;26.50;96428.00;;;;8227268;28;20214;-59
2023/06/29 06:43:07;;;;;;;5.22;2.80;;;;;26.70;96432.00;;;;8232350;28;20860;-60
2023/06/29 06:47:12;;;;;;;5.88;3.75;;;;;27.00;96428.00;;;;8239405;28;20294;-61
2023/06/29 06:51:19;;;;;;;8.00;3.40;;;;;27.30;96438.00;;;;8226322;28;20311;-59
2023/06/29 06:55:25;;;;;;;5.80;3.00;;;;;27.60;96438.00;;;;8217368;28;20241;-61
2023/06/29 06:59:29;;;;;;;7.10;3.30;;;;;27.80;96440.00;;;;8219808;28;20231;-60
2023/06/29 07:03:32;;;;;;;4.82;3.33;;;;;28.10;96438.00;;;;8217356;28;20235;-59
2023/06/29 07:07:35;;;;;;;5.25;3.00;;;;;28.30;96433.00;;;;8236879;28;20290;-59
2023/06/29 07:11:42;;;;;;;5.18;3.50;;;;;28.60;96440.00;;;;8231356;28;20286;-60
2023/06/29 07:15:47;;;;;;;3.55;3.20;;;;;29.00;96440.00;;;;8215833;28;20542;-61
2023/06/29 07:19:52;;;;;;;5.10;3.05;;;;;29.20;96436.00;;;;8217363;28;20231;-63
2023/06/29 07:23:59;;;;;;;4.22;3.05;;;;;29.30;96435.00;;;;8213848;28;20711;-61
2023/06/29 07:28:10;;;;;;;3.38;2.75;;;;;29.70;96435.00;;;;8229684;28;20262;-61
2023/06/29 07:32:15;;;;;;;3.83;2.60;;;;;30.10;96428.00;;;;8233658;28;20645;-60
2023/06/29 07:36:21;;;;;;;6.55;3.28;;;;;30.50;96432.00;;;;8225567;28;20203;-60
2023/06/29 07:40:25;;;;;;;5.28;2.92;;;;;30.60;96434.00;;;;8228307;28;20309;-61
2023/06/29 07:44:31;;;;;;;6.80;2.58;;;;;30.90;96421.00;;;;8231568;28;20290;-60
2023/06/29 07:48:34;;;;;;;3.70;3.22;;;;;31.10;96424.00;;;;8230940;28;20198;-61
2023/06/29 07:52:39;;;;;;;5.63;3.00;;;;;31.10;96413.00;;;;8235987;28;20207;-62
2023/06/29 07:56:44;;;;;;;8.55;3.28;;;;;31.30;96422.00;;;;8239115;28;20321;-60
2023/06/29 08:00:53;;;;;;;3.95;2.85;;;;;31.60;96409.00;;;;8212745;28;20242;-60
2023/06/29 08:04:56;;;;;;;2.92;2.55;;;;;31.70;96416.00;;;;8214701;28;20680;-61
2023/06/29 08:09:05;;;;;;;4.10;2.72;;;;;32.20;96416.00;;;;8214190;28;20569;-63
2023/06/29 08:13:09;;;;;;;4.60;2.60;;;;;32.70;96420.00;;;;8225400;28;20230;-62
2023/06/29 08:17:13;;;;;;;3.00;2.40;;;;;32.90;96415.00;;;;8219063;28;20286;-61
2023/06/29 08:21:18;;;;;;;4.82;2.50;;;;;33.10;96410.00;;;;8217133;28;20281;-61
2023/06/29 08:25:22;;;;;;;5.40;2.50;;;;;33.20;96410.00;;;;8221025;28;20202;-61
2023/06/29 08:29:30;;;;;;;5.45;2.55;;;;;33.40;96405.00;;;;8222468;28;20225;-62
2023/06/29 08:33:34;;;;;;;3.00;2.47;;;;;33.60;96406.00;;;;8220119;28;20199;-61
2023/06/29 08:37:39;;;;;;;3.95;2.60;;;;;33.40;96407.00;;;;8210636;28;20199;-62
2023/06/29 08:41:43;;;;;;;4.03;2.72;;;;;33.60;96408.00;;;;8215906;28;20219;-61
2023/06/29 08:45:50;;;;;;;6.32;2.25;;;;;33.70;96399.00;;;;8233284;28;20249;-61
2023/06/29 08:49:58;;;;;;;2.63;2.00;;;;;33.90;96400.00;;;;8227541;28;20232;-61
2023/06/29 08:54:01;;;;;;;3.47;2.53;;;;;34.20;96407.00;;;;8231740;28;20195;-63
2023/06/29 08:58:09;;;;;;;6.47;2.28;;;;;34.20;96394.00;;;;8230024;28;20204;-61
2023/06/29 09:02:15;;;;;;;2.13;1.92;;;;;34.40;96386.00;;;;8218812;28;20239;-60
2023/06/29 09:06:20;;;;;;;3.83;2.30;;;;;34.40;96388.00;;;;8224856;28;20556;-60
2023/06/29 09:10:23;;;;;;;6.78;2.35;;;;;34.80;96388.00;;;;8221613;28;20225;-63
2023/06/29 09:14:32;;;;;;;2.78;2.15;;;;;35.10;96385.00;;;;8218820;28;20716;-61
2023/06/29 09:18:38;;;;;;;6.18;2.42;;;;;34.70;96385.00;;;;8240411;28;20206;-61
2023/06/29 09:22:45;;;;;;;2.40;2.20;;;;;34.50;96375.00;;;;8234691;28;20241;-61
2023/06/29 09:26:54;;;;;;;3.83;2.35;;;;;34.80;96375.00;;;;8210679;28;20235;-61
2023/06/29 09:31:07;;;;;;;3.30;2.13;;;;;35.10;96379.00;;;;8221708;28;20210;-62
2023/06/29 09:35:15;;;;;;;2.55;2.20;;;;;34.80;96363.00;;;;8217377;28;20200;-62
2023/06/29 09:39:21;;;;;;;1.92;1.83;;;;;35.10;96363.00;;;;8224171;28;20311;-61
2023/06/29 09:43:27;;;;;;;2.75;1.92;;;;;35.20;96346.00;;;;8218539;28;20234;-62
2023/06/29 09:47:31;;;;;;;3.20;1.98;;;;;35.50;96355.00;;;;8222864;28;20664;-64
2023/06/29 09:51:38;;;;;;;3.50;2.08;;;;;35.90;96355.00;;;;8205505;28;20217;-62
2023/06/29 09:55:43;;;;;;;6.25;2.20;;;;;36.20;96347.00;;;;8220896;28;20224;-62
2023/06/29 09:59:49;;;;;;;4.05;1.98;;;;;36.60;96347.00;;;;8218182;28;20199;-62
2023/06/29 10:03:52;;;;;;;2.40;2.20;;;;;36.80;96339.00;;;;8219501;28;20227;-63
2023/06/29 10:07:57;;;;;;;2.90;2.30;;;;;37.20;96343.00;;;;8222967;28;20206;-61
2023/06/29 10:12:07;;;;;;;2.83;1.80;;;;;37.60;96335.00;;;;8202602;28;20200;-61
2023/06/29 10:16:15;;;;;;;2.25;2.00;;;;;37.50;96336.00;;;;8215801;28;20230;-62
2023/06/29 10:20:20;;;;;;;5.45;1.98;;;;;36.70;96338.00;;;;8219649;28;20195;-62
2023/06/29 10:24:30;;;;;;;3.83;2.10;;;;;35.30;96332.00;;;;8219309;28;20748;-62
2023/06/29 10:28:36;;;;;;;8.30;2.30;;;;;34.90;96336.00;;;;8225757;28;20207;-60
2023/06/29 10:32:41;;;;;;;4.50;2.38;;;;;35.10;96328.00;;;;8217388;28;20195;-61
2023/06/29 10:36:47;;;;;;;4.57;2.20;;;;;34.60;96316.00;;;;8216582;28;20205;-61
2023/06/29 10:40:51;;;;;;;4.88;2.30;;;;;35.10;96317.00;;;;8216441;28;20734;-62
2023/06/29 10:44:58;;;;;;;2.25;1.95;;;;;34.90;96317.00;;;;8219516;28;20781;-62
2023/06/29 10:49:01;;;;;;;4.40;2.10;;;;;35.40;96312.00;;;;8215766;28;20844;-62
2023/06/29 10:53:10;;;;;;;5.15;2.10;;;;;35.80;96321.00;;;;8215114;28;20206;-62
2023/06/29 10:57:13;;;;;;;4.85;2.40;;;;;35.90;96316.00;;;;8215118;28;20252;-61
2023/06/29 11:01:18;;;;;;;5.38;2.30;;;;;36.40;96307.00;;;;8223811;28;20314;-61
2023/06/29 11:05:22;;;;;;;2.53;2.05;;;;;36.80;96302.00;;;;8219076;28;20211;-62
2023/06/29 11:09:25;;;;;;;3.30;2.05;;;;;37.20;96313.00;;;;8215896;28;20239;-61
2023/06/29 11:13:30;;;;;;;5.32;2.03;;;;;37.40;96310.00;;;;8218450;28;20588;-62
2023/06/29 11:17:38;;;;;;;2.78;1.92;;;;;37.80;96295.00;;;;8214385;28;20206;-61
2023/06/29 11:21:41;;;;;;;3.05;2.40;;;;;38.00;96298.00;;;;8219332;28;20603;-63
2023/06/29 11:25:48;;;;;;;3.42;2.05;;;;;38.00;96286.00;;;;8213565;28;20213;-63
2023/06/29 11:29:55;;;;;;;2.15;2.05;;;;;38.10;96287.00;;;;8217961;28;20231;-62
2023/06/29 11:34:00;;;;;;;2.08;1.98;;;;;38.30;96274.00;;;;8214157;28;20322;-61
2023/06/29 11:38:03;;;;;;;2.15;1.95;;;;;38.20;96271.00;;;;8229099;28;20202;-63
2023/06/29 11:42:10;;;;;;;2.10;2.00;;;;;38.20;96272.00;;;;8219547;28;20748;-62
2023/06/29 11:46:17;;;;;;;3.15;1.80;;;;;38.10;96275.00;;;;8220652;28;20207;-62
2023/06/29 11:50:24;;;;;;;2.17;2.00;;;;;38.10;96265.00;;;;8215307;28;20637;-61
2023/06/29 11:54:30;;;;;;;2.60;2.13;;;;;37.80;96257.00;;;;8219413;28;20187;-62
2023/06/29 11:58:34;;;;;;;2.38;2.17;;;;;38.10;96259.00;;;;8218683;28;20199;-63
2023/06/29 12:02:38;;;;;;;2.58;2.00;;;;;38.60;96252.00;;;;8218074;28;20231;-61
2023/06/29 12:06:56;;;;;;;1.65;1.65;;;;;38.90;96243.00;;;;8216539;28;20199;-61
2023/06/29 12:11:06;;;;;;;2.20;1.85;;;;;38.80;96243.00;;;;8246469;28;20199;-62
2023/06/29 12:15:13;;;;;;;2.10;2.00;;;;;38.80;96239.00;;;;8244720;28;20218;-62
2023/06/29 12:19:19;;;;;;;2.47;1.92;;;;;39.10;96242.00;;;;8238989;28;20262;-61
2023/06/29 12:23:23;;;;;;;6.72;2.10;;;;;39.20;96237.00;;;;8241723;28;20627;-64
2023/06/29 12:27:29;;;;;;;3.72;2.20;;;;;39.20;96243.00;;;;8250603;28;20293;-61
2023/06/29 12:31:32;;;;;;;2.38;2.00;;;;;39.30;96233.00;;;;8247119;28;20195;-63
2023/06/29 12:35:43;;;;;;;3.53;2.00;;;;;39.40;96222.00;;;;8250196;28;20230;-61
2023/06/29 12:39:49;;;;;;;2.30;2.10;;;;;39.00;96223.00;;;;8247507;28;20213;-61
2023/06/29 12:43:53;;;;;;;2.33;2.05;;;;;38.20;96211.00;;;;8247530;28;20234;-62
2023/06/29 12:47:58;;;;;;;3.00;2.05;;;;;37.10;96214.00;;;;8249883;28;20607;-64
2023/06/29 12:52:03;;;;;;;2.47;2.28;;;;;36.60;96211.00;;;;8222317;28;20192;-61
2023/06/29 12:56:08;;;;;;;2.97;2.13;;;;;35.90;96209.00;;;;8225565;28;20217;-63
2023/06/29 13:00:13;;;;;;;2.30;2.13;;;;;34.80;96198.00;;;;8221700;28;20846;-62
2023/06/29 13:04:16;;;;;;;2.80;1.92;;;;;34.60;96209.00;;;;8219863;28;20323;-62
2023/06/29 13:08:19;;;;;;;3.88;2.30;;;;;34.50;96194.00;;;;8221070;28;20804;-62
2023/06/29 13:12:25;;;;;;;4.57;2.03;;;;;34.70;96201.00;;;;8220310;28;20307;-64
2023/06/29 13:16:31;;;;;;;3.42;2.20;;;;;35.40;96201.00;;;;8224020;28;20278;-62
2023/06/29 13:20:37;;;;;;;3.53;1.80;;;;;36.50;96196.00;;;;8223657;28;20669;-63
2023/06/29 13:24:40;;;;;;;4.15;2.20;;;;;37.10;96191.00;;;;8218190;28;20318;-63
2023/06/29 13:28:46;;;;;;;1.98;1.88;;;;;37.60;96183.00;;;;8222901;28;20230;-63
2023/06/29 13:32:51;;;;;;;2.53;1.92;;;;;38.30;96178.00;;;;8224149;28;20298;-62
2023/06/29 13:36:54;;;;;;;2.50;2.20;;;;;38.80;96178.00;;;;8230629;28;20294;-64
2023/06/29 13:41:00;;;;;;;11.90;2.42;;;;;39.10;96180.00;;;;8235383;28;21875;-63
2023/06/29 13:45:09;;;;;;;8.13;2.38;;;;;38.20;96174.00;;;;8228397;28;20306;-61
2023/06/29 13:49:15;;;;;;;3.22;2.30;;;;;37.90;96181.00;;;;8227000;28;20292;-62
2023/06/29 13:53:18;;;;;;;7.53;2.17;;;;;38.10;96172.00;;;;8227974;28;20206;-62
2023/06/29 13:57:22;;;;;;;2.00;1.90;;;;;38.00;96183.00;;;;8224706;28;20648;-62
2023/06/29 14:01:29;;;;;;;3.17;2.08;;;;;37.40;96181.00;;;;8223123;28;20270;-62
2023/06/29 14:05:32;;;;;;;4.68;1.98;;;;;37.10;96174.00;;;;8224949;28;20297;-63
2023/06/29 14:09:37;;;;;;;2.03;1.90;;;;;37.80;96168.00;;;;8228943;28;20227;-63
2023/06/29 14:13:42;;;;;;;1.98;1.88;;;;;38.40;96159.00;;;;8224420;28;20203;-62
2023/06/29 14:17:47;;;;;;;4.28;2.10;;;;;38.70;96153.00;;;;8221200;28;20206;-63
2023/06/29 14:21:51;;;;;;;2.55;2.35;;;;;37.90;96164.00;;;;8226557;28;20681;-64
2023/06/29 14:25:54;;;;;;;1.80;1.70;;;;;37.50;96152.00;;;;8221385;28;20286;-62
2023/06/29 14:29:59;;;;;;;2.30;2.10;;;;;37.40;96150.00;;;;8226034;28;20203;-64
2023/06/29 14:34:03;;;;;;;5.45;1.92;;;;;37.80;96142.00;;;;8224020;28;20302;-66
2023/06/29 14:38:09;;;;;;;2.13;1.90;;;;;38.10;96142.00;;;;8196423;28;20199;-63
2023/06/29 14:42:17;;;;;;;2.15;1.90;;;;;38.60;96140.00;;;;8221352;28;20226;-62
2023/06/29 14:46:23;;;;;;;2.60;1.90;;;;;38.80;96128.00;;;;8223923;28;20227;-62
2023/06/29 14:50:29;;;;;;;3.70;2.00;;;;;39.30;96124.00;;;;8211390;28;20210;-64
2023/06/29 14:54:32;;;;;;;3.83;2.15;;;;;39.40;96127.00;;;;8225539;28;20720;-62
2023/06/29 14:58:36;;;;;;;1.80;1.70;;;;;39.30;96122.00;;;;8213030;28;20290;-62
2023/06/29 15:02:40;;;;;;;2.47;2.10;;;;;39.30;96123.00;;;;8231178;28;20218;-62
2023/06/29 15:06:50;;;;;;;3.95;2.13;;;;;39.30;96117.00;;;;8250842;28;20222;-61
2023/06/29 15:10:56;;;;;;;2.28;2.08;;;;;39.40;96106.00;;;;8252945;28;20199;-61
2023/06/29 15:15:02;;;;;;;2.35;2.15;;;;;39.50;96107.00;;;;8251799;28;20194;-64
2023/06/29 15:19:05;;;;;;;4.57;2.08;;;;;39.20;96106.00;;;;8251057;28;20191;-61
2023/06/29 15:23:23;;;;;;;3.65;2.30;;;;;39.30;96103.00;;;;8252726;28;20787;-65
2023/06/29 15:27:26;;;;;;;2.13;2.03;;;;;39.10;96101.00;;;;8251001;28;20241;-63
2023/06/29 15:31:29;;;;;;;4.32;2.10;;;;;39.00;96100.00;;;;8253629;28;20222;-62
2023/06/29 15:35:33;;;;;;;5.30;2.00;;;;;39.00;96092.00;;;;8252873;28;20659;-63
2023/06/29 15:39:40;;;;;;;3.60;2.17;;;;;38.90;96083.00;;;;8252014;28;20212;-64
2023/06/29 15:43:45;;;;;;;3.17;1.95;;;;;39.00;96090.00;;;;8254194;28;20344;-63
2023/06/29 15:47:48;;;;;;;2.25;2.05;;;;;38.90;96081.00;;;;8257990;28;20202;-65
2023/06/29 15:51:51;;;;;;;3.30;2.10;;;;;38.20;96079.00;;;;8232029;28;20206;-63
2023/06/29 15:55:55;;;;;;;2.10;1.90;;;;;37.10;96076.00;;;;8260323;28;20597;-63
2023/06/29 15:59:59;;;;;;;4.72;2.15;;;;;36.40;96070.00;;;;8266555;28;20203;-64
2023/06/29 16:04:03;;;;;;;2.13;2.00;;;;;36.20;96064.00;;;;8256593;28;20313;-63
2023/06/29 16:08:06;;;;;;;3.67;2.03;;;;;36.50;96063.00;;;;8265087;28;20195;-64
2023/06/29 16:12:17;;;;;;;2.63;1.88;;;;;36.70;96060.00;;;;8262021;28;20318;-63
2023/06/29 16:16:20;;;;;;;4.88;2.30;;;;;36.80;96054.00;;;;8253829;28;20198;-63
2023/06/29 16:20:31;;;;;;;2.63;1.90;;;;;37.20;96052.00;;;;8250536;28;20286;-63
2023/06/29 16:24:39;;;;;;;2.00;1.80;;;;;37.60;96048.00;;;;8254102;28;20234;-63
2023/06/29 16:28:44;;;;;;;5.95;2.17;;;;;37.70;96049.00;;;;8251858;28;20874;-64
2023/06/29 16:32:47;;;;;;;2.15;2.00;;;;;37.60;96035.00;;;;8251497;28;20557;-63
2023/06/29 16:36:53;;;;;;;5.35;2.00;;;;;37.50;96034.00;;;;8252190;28;20218;-64
2023/06/29 16:40:59;;;;;;;2.88;2.30;;;;;37.20;96034.00;;;;8251180;28;20199;-64
2023/06/29 16:45:08;;;;;;;2.13;1.90;;;;;37.00;96024.00;;;;8253581;28;20229;-62
2023/06/29 16:49:14;;;;;;;5.40;2.10;;;;;36.80;96024.00;;;;8250065;28;20203;-63
2023/06/29 16:53:18;;;;;;;4.82;2.15;;;;;36.40;96032.00;;;;8248934;28;20205;-63
2023/06/29 16:57:21;;;;;;;3.10;2.38;;;;;35.80;96018.00;;;;8251775;28;20209;-63
2023/06/29 17:01:30;;;;;;;5.05;2.10;;;;;35.50;96029.00;;;;8255704;28;20234;-62
2023/06/29 17:05:33;;;;;;;2.33;2.08;;;;;35.40;96029.00;;;;8273525;28;20222;-62
2023/06/29 17:09:37;;;;;;;1.90;1.80;;;;;35.20;96026.00;;;;8274139;28;20209;-64
2023/06/29 17:13:41;;;;;;;3.38;2.00;;;;;35.30;96029.00;;;;8269621;28;20201;-63
2023/06/29 17:17:46;;;;;;;2.05;1.95;;;;;35.10;96030.00;;;;8269959;28;20286;-64
2023/06/29 17:21:50;;;;;;;3.88;1.88;;;;;34.70;96031.00;;;;8253582;28;20199;-62
2023/06/29 17:25:53;;;;;;;2.13;2.03;;;;;34.30;96026.00;;;;8261219;28;20235;-62
2023/06/29 17:29:58;;;;;;;2.30;1.77;;;;;34.10;96020.00;;;;8257967;28;20226;-62
2023/06/29 17:34:04;;;;;;;3.47;2.10;;;;;33.70;96025.00;;;;8250032;28;20740;-62
2023/06/29 17:38:07;;;;;;;4.07;2.20;;;;;33.20;96030.00;;;;8271580;28;20235;-63
2023/06/29 17:42:23;;;;;;;4.70;2.47;;;;;32.90;96028.00;;;;8275938;28;20736;-63
2023/06/29 17:46:26;;;;;;;3.15;2.13;;;;;32.50;96034.00;;;;8268984;28;20235;-62
2023/06/29 17:50:36;;;;;;;3.70;2.17;;;;;32.20;96032.00;;;;8280853;28;20202;-62
2023/06/29 17:54:39;;;;;;;2.72;2.08;;;;;31.90;96027.00;;;;8262486;28;20627;-62
2023/06/29 17:58:43;;;;;;;2.75;2.08;;;;;31.60;96034.00;;;;8267921;28;20615;-62
2023/06/29 18:02:48;;;;;;;4.25;2.33;;;;;31.40;96039.00;;;;8251768;28;20239;-61
2023/06/29 18:06:53;;;;;;;3.50;2.28;;;;;31.20;96036.00;;;;8222088;28;20258;-62
2023/06/29 18:11:04;;;;;;;4.68;2.60;;;;;31.00;96035.00;;;;8221824;28;20298;-63
2023/06/29 18:15:08;;;;;;;5.05;2.22;;;;;30.80;96037.00;;;;8218059;28;20199;-63
2023/06/29 18:19:16;;;;;;;7.78;2.30;;;;;30.50;96033.00;;;;8217484;28;20961;-64
2023/06/29 18:23:21;;;;;;;3.30;2.40;;;;;30.30;96034.00;;;;8199360;28;20195;-62
2023/06/29 18:27:26;;;;;;;2.03;1.92;;;;;30.00;96035.00;;;;8222697;28;20216;-62
2023/06/29 18:31:29;;;;;;;2.08;1.90;;;;;29.80;96034.00;;;;8219292;28;20657;-62
2023/06/29 18:35:32;;;;;;;2.28;2.08;;;;;29.60;96032.00;;;;8231510;28;20195;-61
2023/06/29 18:39:37;;;;;;;2.65;2.20;;;;;29.30;96034.00;;;;8225425;28;20688;-62
2023/06/29 18:43:42;;;;;;;4.10;2.35;;;;;28.90;96030.00;;;;8221231;28;20205;-63
2023/06/29 18:47:46;;;;;;;3.03;2.50;;;;;28.40;96026.00;;;;8223654;28;20218;-63
2023/06/29 18:51:49;;;;;;;2.97;2.38;;;;;27.90;96025.00;;;;8227360;28;20235;-63
2023/06/29 18:55:54;;;;;;;3.95;2.15;;;;;27.50;96023.00;;;;8212472;28;20199;-62
2023/06/29 18:59:57;;;;;;;7.53;2.13;;;;;27.10;96032.00;;;;8222539;28;20709;-63
2023/06/29 19:04:01;;;;;;;3.70;2.25;;;;;26.80;96030.00;;;;8250813;28;20308;-62
2023/06/29 19:08:04;;;;;;;3.38;2.20;;;;;26.40;96031.00;;;;8263108;28;20194;-65
2023/06/29 19:12:17;;;;;;;3.65;2.60;;;;;26.00;96030.00;;;;8255815;28;20234;-64
2023/06/29 19:16:23;;;;;;;5.45;2.47;;;;;25.60;96036.00;;;;8255228;28;20298;-64
2023/06/29 19:20:26;;;;;;;4.38;2.30;;;;;25.30;96042.00;;;;8259580;28;20206;-64
2023/06/29 19:24:32;;;;;;;4.18;2.90;;;;;24.90;96041.00;;;;8250698;28;20321;-65
2023/06/29 19:28:39;;;;;;;5.38;2.40;;;;;24.70;96045.00;;;;8262750;28;20194;-62
2023/06/29 19:32:44;;;;;;;4.18;2.40;;;;;24.40;96049.00;;;;8262356;28;20682;-63
2023/06/29 19:36:49;;;;;;;2.70;2.50;;;;;24.30;96051.00;;;;8277067;28;20209;-63
2023/06/29 19:40:52;;;;;;;3.03;2.70;;;;;24.40;96061.00;;;;8257171;28;20202;-65
2023/06/29 19:44:57;;;;;;;5.75;2.15;;;;;24.60;96063.00;;;;8250670;28;20222;-63
2023/06/29 19:49:01;;;;;;;4.32;2.40;;;;;24.80;96064.00;;;;8253532;28;20199;-65
2023/06/29 19:53:04;;;;;;;2.65;2.45;;;;;24.90;96055.00;;;;8253703;28;20202;-64
2023/06/29 19:57:10;;;;;;;4.35;2.65;;;;;25.00;96069.00;;;;8269392;28;20286;-64
2023/06/29 20:01:15;;;;;;;5.88;2.30;;;;;25.00;96076.00;;;;8265828;28;20226;-66
2023/06/29 20:05:19;;;;;;;2.65;2.47;;;;;24.90;96071.00;;;;8259968;28;20574;-63
2023/06/29 20:09:25;;;;;;;3.08;2.50;;;;;24.80;96073.00;;;;8259898;28;20260;-65
2023/06/29 20:13:28;;;;;;;3.55;2.92;;;;;24.70;96081.00;;;;8263596;28;20209;-63
2023/06/29 20:17:34;;;;;;;2.80;2.55;;;;;24.60;96079.00;;;;8243326;28;20549;-65
2023/06/29 20:21:37;;;;;;;2.95;2.70;;;;;24.50;96074.00;;;;8266800;28;20430;-65
2023/06/29 20:25:44;;;;;;;5.18;2.88;;;;;24.30;96068.00;;;;8274057;28;20433;-67
2023/06/29 20:29:48;;;;;;;5.63;2.80;;;;;24.00;96078.00;;;;8265132;28;20194;-64